createdAt,value
2019-05-15T00:01:19.244Z,102268.59
2019-05-15T00:03:49.280Z,102270.36
2019-05-15T00:06:19.077Z,102267.71
2019-05-15T00:08:48.287Z,102267.28
2019-05-15T00:11:19.263Z,102274.72
2019-05-15T00:13:48.467Z,102269.45
2019-05-15T00:16:18.139Z,102263.77
2019-05-15T00:21:28.645Z,102263.36
2019-05-15T00:23:58.684Z,102256.75
2019-05-15T00:29:12.790Z,102248.02
2019-05-15T00:31:35.404Z,102249.74
2019-05-15T00:34:04.390Z,102255.45
2019-05-15T00:36:33.508Z,102247.98
2019-05-15T00:39:02.741Z,102241.39
2019-05-15T00:41:31.751Z,102238.77
2019-05-15T00:44:01.258Z,102243.98
2019-05-15T00:46:29.904Z,102237.41
2019-05-15T00:48:59.289Z,102237.77
2019-05-15T04:56:15.933Z,102206.95
2019-05-15T04:58:45.271Z,102210.45
2019-05-15T05:03:53.726Z,102195.86
2019-05-15T05:06:23.085Z,102208.94
2019-05-15T05:11:34.154Z,102202.95
2019-05-15T05:14:03.065Z,102208.67
2019-05-15T05:16:31.676Z,102216.97
2019-05-15T05:19:00.337Z,102205.68
2019-05-15T05:21:29.631Z,102209.17
2019-05-15T05:23:58.573Z,102211.06
2019-05-15T05:29:08.545Z,102212.94
2019-05-15T05:34:15.630Z,102207.31
2019-05-15T05:39:22.542Z,102207.79
2019-05-15T05:41:51.496Z,102208.73
2019-05-15T05:44:20.196Z,102212.22
2019-05-15T05:46:48.953Z,102211.38
2019-05-15T05:49:18.522Z,102214.07
2019-05-15T05:51:48.087Z,102207.98
2019-05-15T05:56:54.727Z,102205.98
2019-05-15T05:59:23.344Z,102210.75
2019-05-15T06:01:51.962Z,102206.82
2019-05-15T06:04:20.656Z,102209.87
2019-05-15T06:07:06.048Z,102209.47
2019-05-15T06:09:19.710Z,102208.61
2019-05-15T06:11:49.023Z,102209.50
2019-05-15T06:16:58.720Z,102204.73
2019-05-15T06:19:27.762Z,102201.20
2019-05-15T06:22:00.714Z,102202.07
2019-05-15T06:24:30.660Z,102199.86
2019-05-15T06:26:58.729Z,102198.55
2019-05-15T06:29:28.344Z,102201.61
2019-05-15T06:34:34.426Z,102197.75
2019-05-15T06:37:03.722Z,102205.30
2019-05-15T06:39:32.806Z,102203.59
2019-05-15T06:42:01.599Z,102200.98
2019-05-15T06:44:30.256Z,102194.56
2019-05-15T06:46:59.096Z,102199.64
2019-05-15T06:49:28.621Z,102200.47
2019-05-15T06:51:58.162Z,102202.80
2019-05-15T06:54:28.405Z,102203.54
2019-05-15T06:56:58.325Z,102200.59
2019-05-15T06:59:28.709Z,102191.84
2019-05-15T07:01:59.435Z,102190.92
2019-05-15T07:04:28.860Z,102192.34
2019-05-15T07:06:58.311Z,102186.19
2019-05-15T07:09:28.718Z,102183.59
2019-05-15T07:11:59.049Z,102184.42
2019-05-15T07:14:28.808Z,102182.36
2019-05-15T07:19:35.113Z,102175.69
2019-05-15T07:22:04.530Z,102173.05
2019-05-15T07:27:13.150Z,102163.20
2019-05-15T07:29:42.175Z,102164.90
2019-05-15T07:32:10.867Z,102167.61
2019-05-15T07:34:39.724Z,102160.29
2019-05-15T07:37:09.900Z,102154.54
2019-05-15T07:39:38.601Z,102159.40
2019-05-15T07:42:08.582Z,102157.59
2019-05-15T07:44:38.810Z,102155.60
2019-05-15T07:47:08.824Z,102149.75
2019-05-15T07:49:38.835Z,102143.09
2019-05-15T07:52:08.656Z,102137.78
2019-05-15T07:54:38.331Z,102145.48
2019-05-15T07:59:48.029Z,102141.34
2019-05-15T08:02:19.113Z,102145.23
2019-05-15T08:04:48.225Z,102145.33
2019-05-15T08:09:59.292Z,102136.46
2019-05-15T08:12:28.377Z,102140.22
2019-05-15T08:17:33.878Z,102130.84
2019-05-15T08:20:02.429Z,102136.70
2019-05-15T08:22:30.975Z,102130.28
2019-05-15T08:27:40.186Z,102111.20
2019-05-15T08:30:12.371Z,102111.97
2019-05-15T08:35:23.074Z,102116.83
2019-05-15T08:37:51.887Z,102115.10
2019-05-15T08:43:02.198Z,102107.65
2019-05-15T08:45:31.415Z,102105.56
2019-05-15T08:48:00.180Z,102099.80
2019-05-15T08:50:28.980Z,102100.80
2019-05-15T08:53:01.955Z,102103.49
2019-05-15T08:55:31.487Z,102101.28
2019-05-15T08:58:06.495Z,102096.24
2019-05-15T09:00:30.748Z,102098.30
2019-05-15T09:02:59.907Z,102094.78
2019-05-15T09:05:28.685Z,102088.03
2019-05-15T09:07:58.021Z,102090.26
2019-05-15T09:13:04.907Z,102077.08
2019-05-15T09:15:33.762Z,102085.98
2019-05-15T09:18:12.317Z,102074.00
2019-05-15T09:20:33.351Z,102071.39
2019-05-15T09:23:02.499Z,102069.95
2019-05-15T09:25:31.176Z,102079.07
2019-05-15T09:28:00.318Z,102070.67
2019-05-15T09:30:29.364Z,102062.69
2019-05-15T09:32:58.935Z,102059.81
2019-05-15T09:38:08.696Z,102052.88
2019-05-15T09:40:44.311Z,102054.20
2019-05-15T09:43:10.776Z,102050.34
2019-05-15T09:48:19.787Z,102040.86
2019-05-15T09:50:49.258Z,102033.70
2019-05-15T09:53:19.160Z,102031.47
2019-05-15T09:55:49.699Z,102032.86
2019-05-15T09:58:20.575Z,102028.77
2019-05-15T10:00:51.756Z,102023.91
2019-05-15T10:03:20.481Z,102021.31
2019-05-15T10:08:29.294Z,102014.68
2019-05-15T10:10:59.340Z,102017.98
2019-05-15T10:13:29.007Z,102012.25
2019-05-15T10:18:40.142Z,101995.02
2019-05-15T10:21:09.232Z,102001.67
2019-05-15T10:23:40.306Z,102005.08
2019-05-15T10:26:13.969Z,101993.11
2019-05-15T10:28:40.049Z,101990.77
2019-05-15T10:33:49.220Z,101984.39
2019-05-15T10:36:18.911Z,101982.05
2019-05-15T10:38:48.966Z,101976.44
2019-05-15T10:41:18.973Z,101970.59
2019-05-15T10:43:56.116Z,101966.00
2019-05-15T10:46:19.216Z,101962.63
2019-05-15T10:51:34.243Z,101950.91
2019-05-15T10:56:44.316Z,101942.66
2019-05-15T11:01:52.175Z,101944.03
2019-05-15T11:04:20.849Z,101952.86
2019-05-15T11:06:49.888Z,101939.20
2019-05-15T11:09:19.059Z,101938.97
2019-05-15T11:11:48.657Z,101937.95
2019-05-15T11:14:18.632Z,101949.53
2019-05-15T11:16:49.099Z,101939.12
2019-05-15T11:19:18.171Z,101936.98
2019-05-15T11:21:48.618Z,101928.41
2019-05-15T11:24:19.474Z,101925.31
2019-05-15T11:29:26.745Z,101917.56
2019-05-15T11:32:14.820Z,101906.11
2019-05-15T11:34:44.194Z,101889.16
2019-05-15T11:37:13.281Z,101901.01
2019-05-15T11:39:46.246Z,101893.16
2019-05-15T11:42:12.892Z,101895.05
2019-05-15T11:44:41.510Z,101894.11
2019-05-15T11:47:10.575Z,101902.59
2019-05-15T11:49:40.353Z,101892.20
2019-05-15T11:54:54.982Z,101880.05
2019-05-15T12:00:15.095Z,101874.59
2019-05-15T12:02:39.136Z,101870.63
2019-05-15T12:05:09.243Z,101874.39
2019-05-15T12:07:38.411Z,101864.19
2019-05-15T12:10:10.608Z,101860.95
2019-05-15T12:12:38.648Z,101862.20
2019-05-15T12:17:48.715Z,101866.43
2019-05-15T12:20:19.324Z,101869.86
2019-05-15T12:22:48.943Z,101864.39
2019-05-15T12:25:18.002Z,101863.17
2019-05-15T12:27:49.059Z,101865.47
2019-05-15T12:30:19.989Z,101869.34
2019-05-15T12:35:20.492Z,101862.73
2019-05-15T12:37:49.380Z,101857.82
2019-05-15T12:37:59.207Z,101860.19
2019-05-15T13:00:24.778Z,101839.40
2019-05-15T13:02:54.278Z,101833.56
2019-05-15T13:05:23.495Z,101833.70
2019-05-15T13:07:52.462Z,101833.52
2019-05-15T13:10:21.138Z,101828.80
2019-05-15T13:12:59.545Z,101825.73
2019-05-15T13:15:20.504Z,101818.25
2019-05-15T13:20:28.869Z,101820.06
2019-05-15T13:22:59.320Z,101821.59
2019-05-15T13:25:28.247Z,101822.83
2019-05-15T13:27:58.060Z,101822.75
2019-05-15T13:30:26.940Z,101821.69
2019-05-15T13:32:58.730Z,101815.49
2019-05-15T13:35:28.509Z,101809.61
2019-05-15T13:37:58.658Z,101809.83
2019-05-15T13:40:37.699Z,101804.39
2019-05-15T13:42:58.948Z,101800.84
2019-05-15T13:45:28.941Z,101801.83
2019-05-15T13:47:57.940Z,101790.86
2019-05-15T13:50:28.460Z,101793.77
2019-05-15T13:52:58.997Z,101790.11
2019-05-15T13:55:35.130Z,101787.98
2019-05-15T13:57:58.273Z,101790.34
2019-05-15T14:00:28.961Z,101781.73
2019-05-15T14:05:38.638Z,101785.63
2019-05-15T14:08:08.105Z,101778.61
2019-05-15T14:10:38.681Z,101774.80
2019-05-15T14:13:07.323Z,101778.23
2019-05-15T14:18:19.461Z,101786.48
2019-05-15T14:23:29.428Z,101767.52
2019-05-15T14:25:59.032Z,101770.19
2019-05-15T14:28:29.392Z,101768.54
2019-05-15T14:30:58.688Z,101763.59
2019-05-15T14:33:29.171Z,101764.72
2019-05-15T14:38:37.884Z,101756.86
2019-05-15T14:41:08.666Z,101762.73
2019-05-15T14:43:38.259Z,101760.62
2019-05-15T14:46:08.082Z,101759.70
2019-05-15T14:48:38.643Z,101750.38
2019-05-15T14:51:08.717Z,101750.19
2019-05-15T14:53:38.534Z,101752.06
2019-05-15T14:56:08.538Z,101749.64
2019-05-15T14:58:38.739Z,101749.24
2019-05-15T15:01:12.276Z,101748.75
2019-05-15T15:06:18.202Z,101741.08
2019-05-15T15:08:48.663Z,101736.18
2019-05-15T15:11:17.941Z,101746.56
2019-05-15T15:16:29.006Z,101731.34
2019-05-15T15:18:58.514Z,101728.86
2019-05-15T15:21:29.285Z,101737.77
2019-05-15T15:23:58.709Z,101731.85
2019-05-15T15:29:05.564Z,101724.30
2019-05-15T15:31:35.131Z,101726.64
2019-05-15T15:36:42.003Z,101730.16
2019-05-15T15:39:10.586Z,101722.45
2019-05-15T15:41:39.191Z,101730.30
2019-05-15T15:44:08.681Z,101725.84
2019-05-15T15:46:39.527Z,101725.70
2019-05-15T15:49:08.890Z,101722.55
2019-05-15T15:51:38.168Z,101726.09
2019-05-15T15:56:48.567Z,101719.72
2019-05-15T16:02:00.849Z,101713.89
2019-05-15T16:04:29.934Z,101715.78
2019-05-15T16:06:58.968Z,101708.00
2019-05-15T16:09:28.240Z,101706.23
2019-05-15T16:11:58.385Z,101707.83
2019-05-15T16:14:28.691Z,101699.12
2019-05-15T16:19:35.088Z,101693.69
2019-05-15T16:22:03.854Z,101693.59
2019-05-15T16:24:32.494Z,101698.59
2019-05-15T16:27:01.564Z,101700.70
2019-05-15T16:32:08.884Z,101687.42
2019-05-15T16:34:39.306Z,101698.06
2019-05-15T16:37:08.880Z,101691.70
2019-05-15T16:39:38.456Z,101691.94
2019-05-15T16:42:10.561Z,101689.97
2019-05-15T16:47:19.533Z,101690.73
2019-05-15T16:49:48.666Z,101688.42
2019-05-15T16:52:18.163Z,101683.40
2019-05-15T16:57:32.564Z,101680.36
2019-05-15T17:00:01.250Z,101680.95
2019-05-15T17:02:32.120Z,101677.41
2019-05-15T17:05:01.001Z,101684.29
2019-05-15T17:07:30.162Z,101689.15
2019-05-15T17:09:59.162Z,101687.17
2019-05-15T17:15:09.892Z,101676.89
2019-05-15T17:20:18.086Z,101675.95
2019-05-15T17:22:48.369Z,101686.16
2019-05-15T17:25:18.314Z,101687.75
2019-05-15T17:27:47.806Z,101680.75
2019-05-15T17:30:18.304Z,101681.19
2019-05-15T17:32:49.287Z,101676.47
2019-05-15T17:37:57.943Z,101670.23
2019-05-15T17:40:28.357Z,101678.63
2019-05-15T17:42:58.618Z,101670.23
2019-05-15T17:45:28.863Z,101677.20
2019-05-15T17:50:47.814Z,101673.21
2019-05-15T17:53:07.407Z,101673.01
2019-05-15T17:55:38.327Z,101666.75
2019-05-15T17:58:09.327Z,101674.19
2019-05-15T18:00:39.371Z,101674.58
2019-05-15T18:03:08.726Z,101669.44
2019-05-15T18:05:39.151Z,101668.88
2019-05-15T18:08:08.895Z,101673.82
2019-05-15T18:10:38.470Z,101675.59
2019-05-15T18:13:08.883Z,101676.05
2019-05-15T18:18:15.169Z,101680.56
2019-05-15T18:20:43.840Z,101684.16
2019-05-15T18:23:12.496Z,101684.30
2019-05-15T18:25:41.464Z,101683.22
2019-05-15T18:28:10.114Z,101685.09
2019-05-15T18:33:22.365Z,101679.56
2019-05-15T18:35:53.961Z,101688.22
2019-05-15T18:38:23.131Z,101690.33
2019-05-15T18:43:29.674Z,101690.48
2019-05-15T18:45:58.627Z,101685.95
2019-05-15T18:48:28.851Z,101686.12
2019-05-15T18:50:58.801Z,101690.11
2019-05-15T18:53:28.384Z,101687.19
2019-05-15T18:55:58.346Z,101692.50
2019-05-15T18:58:27.732Z,101694.72
2019-05-15T19:03:38.501Z,101699.70
2019-05-15T19:06:08.877Z,101705.19
2019-05-15T19:08:38.756Z,101700.12
2019-05-15T19:13:45.222Z,101704.13
2019-05-15T19:16:13.874Z,101710.45
2019-05-15T19:21:20.373Z,101707.98
2019-05-15T19:23:49.191Z,101710.31
2019-05-15T19:26:18.452Z,101718.06
2019-05-15T19:28:48.708Z,101715.53
2019-05-15T19:31:26.809Z,101711.72
2019-05-15T19:33:48.082Z,101714.55
2019-05-15T19:36:18.254Z,101710.63
2019-05-15T19:38:47.983Z,101715.08
2019-05-15T19:41:18.335Z,101710.75
2019-05-15T19:46:24.642Z,101715.77
2019-05-15T19:48:53.272Z,101721.50
2019-05-15T19:51:22.976Z,101724.46
2019-05-15T19:56:31.121Z,101712.30
2019-05-15T19:58:59.922Z,101720.03
2019-05-15T20:01:29.278Z,101721.16
2019-05-15T20:03:58.583Z,101714.87
2019-05-15T20:06:28.174Z,101710.75
2019-05-15T20:11:35.036Z,101713.75
2019-05-15T20:14:03.843Z,101721.95
2019-05-15T20:16:32.746Z,101720.92
2019-05-15T20:19:01.487Z,101711.91
2019-05-15T20:21:30.228Z,101713.35
2019-05-15T20:23:59.219Z,101709.06
2019-05-15T20:26:28.778Z,101711.70
2019-05-15T20:31:35.140Z,101710.83
2019-05-15T20:34:06.146Z,101713.02
2019-05-15T20:36:34.304Z,101710.38
2019-05-15T20:39:03.929Z,101709.03
2019-05-15T20:41:32.612Z,101709.56
2019-05-15T20:44:01.249Z,101710.77
2019-05-15T20:46:29.906Z,101709.03
2019-05-15T20:48:58.653Z,101713.10
2019-05-15T20:51:29.039Z,101716.43
2019-05-15T20:56:38.296Z,101713.05
2019-05-15T20:59:06.281Z,101714.08
2019-05-15T21:01:35.412Z,101713.70
2019-05-15T21:04:18.698Z,101709.84
2019-05-15T21:06:37.735Z,101708.19
2019-05-15T21:09:08.363Z,101705.67
2019-05-15T21:11:39.482Z,101706.18
2019-05-15T21:14:08.661Z,101708.73
2019-05-15T21:16:37.889Z,101714.81
2019-05-15T21:19:08.522Z,101715.50
2019-05-15T21:24:14.852Z,101712.29
2019-05-15T21:26:43.501Z,101713.52
2019-05-15T21:29:12.133Z,101713.56
2019-05-15T21:34:32.226Z,101711.35
2019-05-15T21:36:48.414Z,101711.64
2019-05-15T21:39:18.791Z,101708.81
2019-05-15T21:41:48.864Z,101701.74
2019-05-15T21:44:19.033Z,101697.89
2019-05-15T21:46:49.838Z,101704.48
2019-05-15T21:49:19.164Z,101699.72
2019-05-15T21:51:48.495Z,101693.63
2019-05-15T21:54:17.939Z,101692.55
2019-05-15T21:56:47.492Z,101693.55
2019-05-15T21:59:18.789Z,101694.77
2019-05-15T22:01:48.438Z,101690.37
2019-05-15T22:06:58.440Z,101690.62
2019-05-15T22:09:29.061Z,101688.52
2019-05-15T22:14:37.890Z,101679.69
2019-05-15T22:19:49.108Z,101670.06
2019-05-15T22:22:18.014Z,101668.89
2019-05-15T22:24:48.321Z,101665.86
2019-05-15T22:27:18.051Z,101663.75
2019-05-15T22:32:25.052Z,101645.02
2019-05-15T22:35:06.053Z,101648.58
2019-05-15T22:37:24.517Z,101648.58
2019-05-15T22:39:53.268Z,101641.53
2019-05-15T22:42:21.890Z,101631.86
2019-05-15T22:44:50.527Z,101636.16
2019-05-15T22:47:19.941Z,101627.56
2019-05-15T22:52:28.815Z,101619.20
2019-05-15T22:54:58.371Z,101617.98
2019-05-15T22:57:28.080Z,101614.29
2019-05-15T22:59:58.129Z,101614.34
2019-05-15T23:02:27.238Z,101612.36
2019-05-15T23:04:56.190Z,101610.16
2019-05-15T23:10:03.336Z,101600.27
2019-05-15T23:12:31.932Z,101601.33
2019-05-15T23:15:00.661Z,101596.90
2019-05-15T23:17:29.803Z,101588.21
2019-05-15T23:19:59.085Z,101584.72
2019-05-15T23:22:28.278Z,101586.15
2019-05-15T23:24:58.488Z,101581.80
2019-05-15T23:27:28.759Z,101578.92
2019-05-15T23:29:58.216Z,101580.94
2019-05-15T23:32:28.911Z,101577.66
2019-05-15T23:34:58.465Z,101579.20
2019-05-15T23:37:28.033Z,101573.97
2019-05-15T23:42:34.839Z,101567.26
2019-05-15T23:45:04.185Z,101567.08
2019-05-15T23:47:33.572Z,101564.39
2019-05-15T23:50:02.571Z,101566.39
2019-05-15T23:52:31.189Z,101566.97
2019-05-15T23:57:39.262Z,101556.69
